sensor_id;sensor_type;location;lat;lon;timestamp;P1;durP1;ratioP1;P2;durP2;ratioP2
57778;SDS011;43608;49.486;9.640;2023-07-16T00:00:18;4.03;;;2.50;;
57778;SDS011;43608;49.486;9.640;2023-07-16T00:00:50;3.33;;;2.40;;
57778;SDS011;43608;49.486;9.640;2023-07-16T00:01:20;2.80;;;2.50;;
57778;SDS011;43608;49.486;9.640;2023-07-16T00:01:51;3.60;;;2.50;;
57778;SDS011;43608;49.486;9.640;2023-07-16T00:02:21;2.70;;;2.40;;
57778;SDS011;43608;49.486;9.640;2023-07-16T00:02:52;3.15;;;2.50;;
57778;SDS011;43608;49.486;9.640;2023-07-16T00:03:22;3.38;;;2.35;;
57778;SDS011;43608;49.486;9.640;2023-07-16T00:03:52;4.90;;;2.67;;
57778;SDS011;43608;49.486;9.640;2023-07-16T00:04:23;2.58;;;2.17;;
57778;SDS011;43608;49.486;9.640;2023-07-16T00:04:53;3.08;;;2.47;;
57778;SDS011;43608;49.486;9.640;2023-07-16T00:05:24;3.88;;;2.70;;
57778;SDS011;43608;49.486;9.640;2023-07-16T00:05:54;3.10;;;2.33;;
57778;SDS011;43608;49.486;9.640;2023-07-16T00:06:24;2.90;;;2.50;;
57778;SDS011;43608;49.486;9.640;2023-07-16T00:06:55;2.90;;;2.30;;
57778;SDS011;43608;49.486;9.640;2023-07-16T00:07:25;3.90;;;2.58;;
57778;SDS011;43608;49.486;9.640;2023-07-16T00:07:56;3.63;;;2.40;;
57778;SDS011;43608;49.486;9.640;2023-07-16T00:08:26;3.20;;;2.60;;
57778;SDS011;43608;49.486;9.640;2023-07-16T00:08:57;3.90;;;2.30;;
57778;SDS011;43608;49.486;9.640;2023-07-16T00:09:29;3.38;;;2.67;;
57778;SDS011;43608;49.486;9.640;2023-07-16T00:09:59;3.30;;;2.28;;
57778;SDS011;43608;49.486;9.640;2023-07-16T00:10:29;3.38;;;2.38;;
57778;SDS011;43608;49.486;9.640;2023-07-16T00:11:00;4.18;;;2.40;;
57778;SDS011;43608;49.486;9.640;2023-07-16T00:11:30;3.05;;;2.30;;
57778;SDS011;43608;49.486;9.640;2023-07-16T00:12:00;2.28;;;2.08;;
57778;SDS011;43608;49.486;9.640;2023-07-16T00:12:31;2.70;;;2.22;;
57778;SDS011;43608;49.486;9.640;2023-07-16T00:13:02;2.22;;;2.00;;
57778;SDS011;43608;49.486;9.640;2023-07-16T00:13:33;2.85;;;2.35;;
57778;SDS011;43608;49.486;9.640;2023-07-16T00:14:03;2.58;;;2.20;;
57778;SDS011;43608;49.486;9.640;2023-07-16T00:14:34;3.05;;;2.10;;
57778;SDS011;43608;49.486;9.640;2023-07-16T00:15:04;2.30;;;2.10;;
57778;SDS011;43608;49.486;9.640;2023-07-16T00:15:36;2.13;;;1.90;;
57778;SDS011;43608;49.486;9.640;2023-07-16T00:16:06;2.97;;;2.10;;
57778;SDS011;43608;49.486;9.640;2023-07-16T00:16:36;2.40;;;2.00;;
57778;SDS011;43608;49.486;9.640;2023-07-16T00:17:07;2.10;;;1.90;;
57778;SDS011;43608;49.486;9.640;2023-07-16T00:17:37;2.53;;;1.98;;
57778;SDS011;43608;49.486;9.640;2023-07-16T00:18:08;2.30;;;2.00;;
57778;SDS011;43608;49.486;9.640;2023-07-16T00:18:38;2.50;;;2.10;;
57778;SDS011;43608;49.486;9.640;2023-07-16T00:19:11;2.10;;;1.80;;
57778;SDS011;43608;49.486;9.640;2023-07-16T00:19:42;2.42;;;2.03;;
57778;SDS011;43608;49.486;9.640;2023-07-16T00:20:12;2.10;;;1.90;;
57778;SDS011;43608;49.486;9.640;2023-07-16T00:20:42;2.38;;;1.92;;
57778;SDS011;43608;49.486;9.640;2023-07-16T00:21:13;1.80;;;1.70;;
57778;SDS011;43608;49.486;9.640;2023-07-16T00:21:43;2.53;;;2.00;;
57778;SDS011;43608;49.486;9.640;2023-07-16T00:22:14;2.15;;;2.00;;
57778;SDS011;43608;49.486;9.640;2023-07-16T00:22:44;2.10;;;1.90;;
57778;SDS011;43608;49.486;9.640;2023-07-16T00:23:14;2.10;;;1.90;;
57778;SDS011;43608;49.486;9.640;2023-07-16T00:23:45;2.35;;;1.90;;
57778;SDS011;43608;49.486;9.640;2023-07-16T00:24:15;2.13;;;1.92;;
57778;SDS011;43608;49.486;9.640;2023-07-16T00:24:45;1.80;;;1.70;;
57778;SDS011;43608;49.486;9.640;2023-07-16T00:25:16;2.00;;;1.80;;
57778;SDS011;43608;49.486;9.640;2023-07-16T00:25:46;2.05;;;1.70;;
57778;SDS011;43608;49.486;9.640;2023-07-16T00:26:16;1.90;;;1.80;;
57778;SDS011;43608;49.486;9.640;2023-07-16T00:26:47;1.88;;;1.70;;
57778;SDS011;43608;49.486;9.640;2023-07-16T00:27:17;1.70;;;1.60;;
57778;SDS011;43608;49.486;9.640;2023-07-16T00:27:48;1.98;;;1.77;;
57778;SDS011;43608;49.486;9.640;2023-07-16T00:28:18;2.13;;;1.92;;
57778;SDS011;43608;49.486;9.640;2023-07-16T00:28:48;1.80;;;1.70;;
57778;SDS011;43608;49.486;9.640;2023-07-16T00:29:18;1.92;;;1.73;;
57778;SDS011;43608;49.486;9.640;2023-07-16T00:29:49;1.92;;;1.67;;
57778;SDS011;43608;49.486;9.640;2023-07-16T00:30:19;1.98;;;1.80;;
57778;SDS011;43608;49.486;9.640;2023-07-16T00:30:50;1.95;;;1.60;;
57778;SDS011;43608;49.486;9.640;2023-07-16T00:31:20;1.52;;;1.42;;
57778;SDS011;43608;49.486;9.640;2023-07-16T00:31:51;1.60;;;1.50;;
57778;SDS011;43608;49.486;9.640;2023-07-16T00:32:21;1.60;;;1.50;;
57778;SDS011;43608;49.486;9.640;2023-07-16T00:32:51;1.80;;;1.70;;
57778;SDS011;43608;49.486;9.640;2023-07-16T00:33:22;1.50;;;1.40;;
57778;SDS011;43608;49.486;9.640;2023-07-16T00:33:52;1.60;;;1.50;;
57778;SDS011;43608;49.486;9.640;2023-07-16T00:34:22;1.70;;;1.60;;
57778;SDS011;43608;49.486;9.640;2023-07-16T00:34:53;1.70;;;1.60;;
57778;SDS011;43608;49.486;9.640;2023-07-16T00:35:23;1.60;;;1.50;;
57778;SDS011;43608;49.486;9.640;2023-07-16T00:35:53;1.75;;;1.50;;
57778;SDS011;43608;49.486;9.640;2023-07-16T00:36:24;1.52;;;1.42;;
57778;SDS011;43608;49.486;9.640;2023-07-16T00:36:54;1.70;;;1.60;;
57778;SDS011;43608;49.486;9.640;2023-07-16T00:37:31;1.65;;;1.55;;
57778;SDS011;43608;49.486;9.640;2023-07-16T00:38:01;1.60;;;1.50;;
57778;SDS011;43608;49.486;9.640;2023-07-16T00:38:32;1.50;;;1.40;;
57778;SDS011;43608;49.486;9.640;2023-07-16T00:39:02;1.70;;;1.60;;
57778;SDS011;43608;49.486;9.640;2023-07-16T00:39:32;1.50;;;1.40;;
57778;SDS011;43608;49.486;9.640;2023-07-16T00:40:03;1.40;;;1.35;;
57778;SDS011;43608;49.486;9.640;2023-07-16T00:40:34;1.50;;;1.40;;
57778;SDS011;43608;49.486;9.640;2023-07-16T00:41:04;1.50;;;1.40;;
57778;SDS011;43608;49.486;9.640;2023-07-16T00:41:34;1.60;;;1.50;;
57778;SDS011;43608;49.486;9.640;2023-07-16T00:42:05;1.35;;;1.35;;
57778;SDS011;43608;49.486;9.640;2023-07-16T00:42:35;1.50;;;1.40;;
57778;SDS011;43608;49.486;9.640;2023-07-16T00:43:05;1.52;;;1.42;;
57778;SDS011;43608;49.486;9.640;2023-07-16T00:43:36;1.60;;;1.50;;
57778;SDS011;43608;49.486;9.640;2023-07-16T00:44:08;1.65;;;1.55;;
57778;SDS011;43608;49.486;9.640;2023-07-16T00:44:39;1.52;;;1.50;;
57778;SDS011;43608;49.486;9.640;2023-07-16T00:45:11;2.53;;;1.63;;
57778;SDS011;43608;49.486;9.640;2023-07-16T00:45:45;1.60;;;1.50;;
57778;SDS011;43608;49.486;9.640;2023-07-16T00:46:17;1.83;;;1.73;;
57778;SDS011;43608;49.486;9.640;2023-07-16T00:46:48;1.63;;;1.52;;
57778;SDS011;43608;49.486;9.640;2023-07-16T00:47:18;1.63;;;1.52;;
57778;SDS011;43608;49.486;9.640;2023-07-16T00:47:50;1.50;;;1.40;;
57778;SDS011;43608;49.486;9.640;2023-07-16T00:48:20;1.70;;;1.60;;
57778;SDS011;43608;49.486;9.640;2023-07-16T00:48:50;1.50;;;1.40;;
57778;SDS011;43608;49.486;9.640;2023-07-16T00:49:21;1.73;;;1.50;;
57778;SDS011;43608;49.486;9.640;2023-07-16T00:49:52;1.60;;;1.50;;
57778;SDS011;43608;49.486;9.640;2023-07-16T00:50:23;1.88;;;1.60;;
57778;SDS011;43608;49.486;9.640;2023-07-16T00:50:53;1.60;;;1.50;;
57778;SDS011;43608;49.486;9.640;2023-07-16T00:51:24;1.58;;;1.48;;
57778;SDS011;43608;49.486;9.640;2023-07-16T00:51:55;1.60;;;1.50;;
57778;SDS011;43608;49.486;9.640;2023-07-16T00:52:26;1.70;;;1.60;;
57778;SDS011;43608;49.486;9.640;2023-07-16T00:52:58;1.60;;;1.50;;
57778;SDS011;43608;49.486;9.640;2023-07-16T00:53:29;1.60;;;1.50;;
57778;SDS011;43608;49.486;9.640;2023-07-16T00:54:00;1.55;;;1.40;;
57778;SDS011;43608;49.486;9.640;2023-07-16T00:54:31;1.60;;;1.50;;
57778;SDS011;43608;49.486;9.640;2023-07-16T00:55:02;1.60;;;1.50;;
57778;SDS011;43608;49.486;9.640;2023-07-16T00:55:32;1.88;;;1.58;;
57778;SDS011;43608;49.486;9.640;2023-07-16T00:56:05;1.60;;;1.50;;
57778;SDS011;43608;49.486;9.640;2023-07-16T00:56:37;1.30;;;1.30;;
57778;SDS011;43608;49.486;9.640;2023-07-16T00:57:08;1.45;;;1.35;;
57778;SDS011;43608;49.486;9.640;2023-07-16T00:57:38;1.60;;;1.50;;
57778;SDS011;43608;49.486;9.640;2023-07-16T00:58:09;1.60;;;1.50;;
57778;SDS011;43608;49.486;9.640;2023-07-16T00:58:40;1.50;;;1.40;;
57778;SDS011;43608;49.486;9.640;2023-07-16T00:59:10;1.58;;;1.48;;
57778;SDS011;43608;49.486;9.640;2023-07-16T00:59:40;1.40;;;1.30;;
57778;SDS011;43608;49.486;9.640;2023-07-16T01:00:11;1.50;;;1.40;;
57778;SDS011;43608;49.486;9.640;2023-07-16T01:00:42;1.42;;;1.30;;
57778;SDS011;43608;49.486;9.640;2023-07-16T01:01:12;1.50;;;1.40;;
57778;SDS011;43608;49.486;9.640;2023-07-16T01:01:43;1.50;;;1.40;;
57778;SDS011;43608;49.486;9.640;2023-07-16T01:02:13;1.40;;;1.30;;
57778;SDS011;43608;49.486;9.640;2023-07-16T01:02:43;1.42;;;1.38;;
57778;SDS011;43608;49.486;9.640;2023-07-16T01:03:14;1.50;;;1.40;;
57778;SDS011;43608;49.486;9.640;2023-07-16T01:03:45;1.58;;;1.48;;
57778;SDS011;43608;49.486;9.640;2023-07-16T01:04:15;1.48;;;1.38;;
57778;SDS011;43608;49.486;9.640;2023-07-16T01:04:46;1.55;;;1.42;;
57778;SDS011;43608;49.486;9.640;2023-07-16T01:05:17;1.40;;;1.30;;
57778;SDS011;43608;49.486;9.640;2023-07-16T01:06:00;1.50;;;1.40;;
57778;SDS011;43608;49.486;9.640;2023-07-16T01:06:43;1.50;;;1.40;;
57778;SDS011;43608;49.486;9.640;2023-07-16T01:07:19;1.42;;;1.33;;
57778;SDS011;43608;49.486;9.640;2023-07-16T01:07:55;1.45;;;1.35;;
57778;SDS011;43608;49.486;9.640;2023-07-16T01:08:32;1.40;;;1.30;;
57778;SDS011;43608;49.486;9.640;2023-07-16T01:09:15;1.60;;;1.50;;
57778;SDS011;43608;49.486;9.640;2023-07-16T01:09:49;1.42;;;1.33;;
57778;SDS011;43608;49.486;9.640;2023-07-16T01:10:21;1.70;;;1.60;;
57778;SDS011;43608;49.486;9.640;2023-07-16T01:10:52;1.83;;;1.60;;
57778;SDS011;43608;49.486;9.640;2023-07-16T01:11:24;2.13;;;1.60;;
57778;SDS011;43608;49.486;9.640;2023-07-16T01:11:56;2.33;;;1.70;;
57778;SDS011;43608;49.486;9.640;2023-07-16T01:12:30;2.40;;;1.95;;
57778;SDS011;43608;49.486;9.640;2023-07-16T01:13:02;3.42;;;2.17;;
57778;SDS011;43608;49.486;9.640;2023-07-16T01:13:33;3.55;;;2.40;;
57778;SDS011;43608;49.486;9.640;2023-07-16T01:14:04;2.95;;;2.03;;
57778;SDS011;43608;49.486;9.640;2023-07-16T01:14:36;2.70;;;1.90;;
57778;SDS011;43608;49.486;9.640;2023-07-16T01:15:09;2.55;;;1.95;;
57778;SDS011;43608;49.486;9.640;2023-07-16T01:15:39;3.35;;;2.22;;
57778;SDS011;43608;49.486;9.640;2023-07-16T01:16:22;2.78;;;2.15;;
57778;SDS011;43608;49.486;9.640;2023-07-16T01:16:54;2.80;;;2.00;;
57778;SDS011;43608;49.486;9.640;2023-07-16T01:17:28;2.45;;;1.90;;
57778;SDS011;43608;49.486;9.640;2023-07-16T01:17:59;2.70;;;1.80;;
57778;SDS011;43608;49.486;9.640;2023-07-16T01:18:30;2.40;;;1.90;;
57778;SDS011;43608;49.486;9.640;2023-07-16T01:19:00;2.20;;;1.80;;
57778;SDS011;43608;49.486;9.640;2023-07-16T01:19:30;3.05;;;1.90;;
57778;SDS011;43608;49.486;9.640;2023-07-16T01:20:01;1.95;;;1.80;;
57778;SDS011;43608;49.486;9.640;2023-07-16T01:20:31;2.55;;;1.80;;
57778;SDS011;43608;49.486;9.640;2023-07-16T01:21:01;2.67;;;1.90;;
57778;SDS011;43608;49.486;9.640;2023-07-16T01:21:34;2.15;;;1.80;;
57778;SDS011;43608;49.486;9.640;2023-07-16T01:23:37;2.63;;;1.80;;
57778;SDS011;43608;49.486;9.640;2023-07-16T01:26:19;1.60;;;1.50;;
57778;SDS011;43608;49.486;9.640;2023-07-16T01:27:49;2.60;;;1.80;;
57778;SDS011;43608;49.486;9.640;2023-07-16T01:28:44;1.70;;;1.60;;
57778;SDS011;43608;49.486;9.640;2023-07-16T01:29:29;1.60;;;1.50;;
57778;SDS011;43608;49.486;9.640;2023-07-16T01:30:05;1.75;;;1.65;;
57778;SDS011;43608;49.486;9.640;2023-07-16T01:30:41;2.00;;;1.75;;
57778;SDS011;43608;49.486;9.640;2023-07-16T01:31:14;1.60;;;1.50;;
57778;SDS011;43608;49.486;9.640;2023-07-16T01:31:47;2.72;;;1.80;;
57778;SDS011;43608;49.486;9.640;2023-07-16T01:32:19;1.75;;;1.58;;
57778;SDS011;43608;49.486;9.640;2023-07-16T01:32:51;1.77;;;1.65;;
57778;SDS011;43608;49.486;9.640;2023-07-16T01:33:23;1.60;;;1.50;;
57778;SDS011;43608;49.486;9.640;2023-07-16T01:33:53;1.60;;;1.50;;
57778;SDS011;43608;49.486;9.640;2023-07-16T01:34:24;1.63;;;1.45;;
57778;SDS011;43608;49.486;9.640;2023-07-16T01:34:58;1.45;;;1.35;;
57778;SDS011;43608;49.486;9.640;2023-07-16T01:35:30;1.70;;;1.48;;
57778;SDS011;43608;49.486;9.640;2023-07-16T01:36:00;1.55;;;1.45;;
57778;SDS011;43608;49.486;9.640;2023-07-16T01:36:33;1.60;;;1.50;;
57778;SDS011;43608;49.486;9.640;2023-07-16T01:37:06;1.95;;;1.60;;
57778;SDS011;43608;49.486;9.640;2023-07-16T01:37:36;1.60;;;1.50;;
57778;SDS011;43608;49.486;9.640;2023-07-16T01:38:08;1.70;;;1.52;;
57778;SDS011;43608;49.486;9.640;2023-07-16T01:38:39;1.60;;;1.50;;
57778;SDS011;43608;49.486;9.640;2023-07-16T01:39:10;1.60;;;1.50;;
57778;SDS011;43608;49.486;9.640;2023-07-16T01:39:40;1.67;;;1.58;;
57778;SDS011;43608;49.486;9.640;2023-07-16T01:40:11;1.60;;;1.50;;
57778;SDS011;43608;49.486;9.640;2023-07-16T01:40:41;1.73;;;1.52;;
57778;SDS011;43608;49.486;9.640;2023-07-16T01:41:12;1.83;;;1.70;;
57778;SDS011;43608;49.486;9.640;2023-07-16T01:41:42;2.50;;;1.80;;
57778;SDS011;43608;49.486;9.640;2023-07-16T01:42:13;2.35;;;1.80;;
57778;SDS011;43608;49.486;9.640;2023-07-16T01:42:43;2.72;;;1.90;;
57778;SDS011;43608;49.486;9.640;2023-07-16T01:43:13;1.77;;;1.67;;
57778;SDS011;43608;49.486;9.640;2023-07-16T01:43:44;1.85;;;1.60;;
57778;SDS011;43608;49.486;9.640;2023-07-16T01:44:14;2.05;;;1.60;;
57778;SDS011;43608;49.486;9.640;2023-07-16T01:44:44;1.95;;;1.60;;
57778;SDS011;43608;49.486;9.640;2023-07-16T01:45:15;2.58;;;1.77;;
57778;SDS011;43608;49.486;9.640;2023-07-16T01:45:45;2.67;;;1.80;;
57778;SDS011;43608;49.486;9.640;2023-07-16T01:46:16;1.70;;;1.60;;
57778;SDS011;43608;49.486;9.640;2023-07-16T01:46:49;2.17;;;1.75;;
57778;SDS011;43608;49.486;9.640;2023-07-16T01:47:45;2.00;;;1.40;;
57778;SDS011;43608;49.486;9.640;2023-07-16T01:48:35;2.42;;;1.60;;
57778;SDS011;43608;49.486;9.640;2023-07-16T01:49:06;1.90;;;1.70;;
57778;SDS011;43608;49.486;9.640;2023-07-16T01:49:40;2.60;;;1.80;;
57778;SDS011;43608;49.486;9.640;2023-07-16T01:50:12;1.73;;;1.63;;
57778;SDS011;43608;49.486;9.640;2023-07-16T01:50:42;1.80;;;1.70;;
57778;SDS011;43608;49.486;9.640;2023-07-16T01:51:13;2.15;;;1.70;;
57778;SDS011;43608;49.486;9.640;2023-07-16T01:51:44;1.80;;;1.70;;
57778;SDS011;43608;49.486;9.640;2023-07-16T01:52:14;1.77;;;1.67;;
57778;SDS011;43608;49.486;9.640;2023-07-16T01:52:44;1.70;;;1.60;;
57778;SDS011;43608;49.486;9.640;2023-07-16T01:53:15;1.73;;;1.58;;
57778;SDS011;43608;49.486;9.640;2023-07-16T01:53:45;2.72;;;1.83;;
57778;SDS011;43608;49.486;9.640;2023-07-16T01:54:15;1.60;;;1.50;;
57778;SDS011;43608;49.486;9.640;2023-07-16T01:54:46;2.10;;;1.70;;
57778;SDS011;43608;49.486;9.640;2023-07-16T01:55:16;2.20;;;1.70;;
57778;SDS011;43608;49.486;9.640;2023-07-16T01:55:46;1.95;;;1.70;;
57778;SDS011;43608;49.486;9.640;2023-07-16T01:56:17;1.90;;;1.73;;
57778;SDS011;43608;49.486;9.640;2023-07-16T01:56:47;2.05;;;1.70;;
57778;SDS011;43608;49.486;9.640;2023-07-16T01:57:17;2.00;;;1.77;;
57778;SDS011;43608;49.486;9.640;2023-07-16T01:57:48;1.83;;;1.70;;
57778;SDS011;43608;49.486;9.640;2023-07-16T01:58:18;1.98;;;1.70;;
57778;SDS011;43608;49.486;9.640;2023-07-16T01:58:48;3.35;;;1.92;;
57778;SDS011;43608;49.486;9.640;2023-07-16T01:59:19;1.83;;;1.70;;
57778;SDS011;43608;49.486;9.640;2023-07-16T01:59:49;2.55;;;1.90;;
57778;SDS011;43608;49.486;9.640;2023-07-16T02:00:20;2.38;;;1.80;;
57778;SDS011;43608;49.486;9.640;2023-07-16T02:00:50;2.13;;;1.90;;
57778;SDS011;43608;49.486;9.640;2023-07-16T02:01:20;2.72;;;2.10;;
57778;SDS011;43608;49.486;9.640;2023-07-16T02:01:51;2.03;;;1.83;;
57778;SDS011;43608;49.486;9.640;2023-07-16T02:02:23;2.33;;;1.92;;
57778;SDS011;43608;49.486;9.640;2023-07-16T02:02:54;2.45;;;1.80;;
57778;SDS011;43608;49.486;9.640;2023-07-16T02:03:24;3.30;;;1.85;;
57778;SDS011;43608;49.486;9.640;2023-07-16T02:03:54;2.88;;;1.70;;
57778;SDS011;43608;49.486;9.640;2023-07-16T02:04:24;1.80;;;1.70;;
57778;SDS011;43608;49.486;9.640;2023-07-16T02:04:55;2.13;;;1.70;;
57778;SDS011;43608;49.486;9.640;2023-07-16T02:05:25;2.05;;;1.85;;
57778;SDS011;43608;49.486;9.640;2023-07-16T02:05:55;2.40;;;1.80;;
57778;SDS011;43608;49.486;9.640;2023-07-16T02:06:26;2.88;;;1.85;;
57778;SDS011;43608;49.486;9.640;2023-07-16T02:06:56;2.17;;;1.63;;
57778;SDS011;43608;49.486;9.640;2023-07-16T02:07:26;3.22;;;1.85;;
57778;SDS011;43608;49.486;9.640;2023-07-16T02:07:58;1.70;;;1.60;;
57778;SDS011;43608;49.486;9.640;2023-07-16T02:08:28;2.05;;;1.70;;
57778;SDS011;43608;49.486;9.640;2023-07-16T02:08:59;1.90;;;1.70;;
57778;SDS011;43608;49.486;9.640;2023-07-16T02:09:29;2.00;;;1.80;;
57778;SDS011;43608;49.486;9.640;2023-07-16T02:09:59;1.70;;;1.60;;
57778;SDS011;43608;49.486;9.640;2023-07-16T02:10:30;1.73;;;1.63;;
57778;SDS011;43608;49.486;9.640;2023-07-16T02:11:01;1.65;;;1.55;;
57778;SDS011;43608;49.486;9.640;2023-07-16T02:11:31;1.63;;;1.52;;
57778;SDS011;43608;49.486;9.640;2023-07-16T02:12:01;1.60;;;1.50;;
57778;SDS011;43608;49.486;9.640;2023-07-16T02:12:32;1.77;;;1.67;;
57778;SDS011;43608;49.486;9.640;2023-07-16T02:13:02;1.70;;;1.60;;
57778;SDS011;43608;49.486;9.640;2023-07-16T02:13:32;1.98;;;1.80;;
57778;SDS011;43608;49.486;9.640;2023-07-16T02:14:03;1.70;;;1.60;;
57778;SDS011;43608;49.486;9.640;2023-07-16T02:14:33;1.85;;;1.75;;
57778;SDS011;43608;49.486;9.640;2023-07-16T02:15:04;1.70;;;1.60;;
57778;SDS011;43608;49.486;9.640;2023-07-16T02:15:34;2.17;;;1.70;;
57778;SDS011;43608;49.486;9.640;2023-07-16T02:16:05;3.25;;;1.70;;
57778;SDS011;43608;49.486;9.640;2023-07-16T02:16:35;2.30;;;1.65;;
57778;SDS011;43608;49.486;9.640;2023-07-16T02:17:05;1.73;;;1.50;;
57778;SDS011;43608;49.486;9.640;2023-07-16T02:17:35;1.70;;;1.60;;
57778;SDS011;43608;49.486;9.640;2023-07-16T02:18:06;2.75;;;1.77;;
57778;SDS011;43608;49.486;9.640;2023-07-16T02:18:36;2.05;;;1.67;;
57778;SDS011;43608;49.486;9.640;2023-07-16T02:19:06;1.90;;;1.70;;
57778;SDS011;43608;49.486;9.640;2023-07-16T02:19:37;1.77;;;1.67;;
57778;SDS011;43608;49.486;9.640;2023-07-16T02:20:07;2.80;;;1.63;;
57778;SDS011;43608;49.486;9.640;2023-07-16T02:20:40;1.52;;;1.42;;
57778;SDS011;43608;49.486;9.640;2023-07-16T02:21:10;2.25;;;1.60;;
57778;SDS011;43608;49.486;9.640;2023-07-16T02:21:41;2.42;;;1.60;;
57778;SDS011;43608;49.486;9.640;2023-07-16T02:22:11;2.38;;;1.65;;
57778;SDS011;43608;49.486;9.640;2023-07-16T02:22:41;1.60;;;1.50;;
57778;SDS011;43608;49.486;9.640;2023-07-16T02:23:12;1.65;;;1.55;;
57778;SDS011;43608;49.486;9.640;2023-07-16T02:23:42;1.77;;;1.60;;
57778;SDS011;43608;49.486;9.640;2023-07-16T02:24:12;1.90;;;1.75;;
57778;SDS011;43608;49.486;9.640;2023-07-16T02:24:43;1.95;;;1.65;;
57778;SDS011;43608;49.486;9.640;2023-07-16T02:25:13;2.03;;;1.70;;
57778;SDS011;43608;49.486;9.640;2023-07-16T02:25:43;1.80;;;1.52;;
57778;SDS011;43608;49.486;9.640;2023-07-16T02:26:13;1.75;;;1.60;;
57778;SDS011;43608;49.486;9.640;2023-07-16T02:26:44;1.75;;;1.55;;
57778;SDS011;43608;49.486;9.640;2023-07-16T02:27:14;2.22;;;1.60;;
57778;SDS011;43608;49.486;9.640;2023-07-16T02:27:45;1.60;;;1.50;;
57778;SDS011;43608;49.486;9.640;2023-07-16T02:28:15;1.60;;;1.50;;
57778;SDS011;43608;49.486;9.640;2023-07-16T02:28:45;1.88;;;1.50;;
57778;SDS011;43608;49.486;9.640;2023-07-16T02:29:16;1.50;;;1.40;;
57778;SDS011;43608;49.486;9.640;2023-07-16T02:29:46;1.67;;;1.58;;
57778;SDS011;43608;49.486;9.640;2023-07-16T02:30:16;1.52;;;1.42;;
57778;SDS011;43608;49.486;9.640;2023-07-16T02:30:49;1.50;;;1.40;;
57778;SDS011;43608;49.486;9.640;2023-07-16T02:31:20;1.67;;;1.58;;
57778;SDS011;43608;49.486;9.640;2023-07-16T02:31:50;1.70;;;1.60;;
57778;SDS011;43608;49.486;9.640;2023-07-16T02:32:20;2.17;;;1.60;;
57778;SDS011;43608;49.486;9.640;2023-07-16T02:32:51;2.47;;;1.77;;
57778;SDS011;43608;49.486;9.640;2023-07-16T02:33:21;2.85;;;1.60;;
57778;SDS011;43608;49.486;9.640;2023-07-16T02:33:51;1.85;;;1.70;;
57778;SDS011;43608;49.486;9.640;2023-07-16T02:34:22;2.53;;;1.73;;
57778;SDS011;43608;49.486;9.640;2023-07-16T02:34:52;2.15;;;1.63;;
57778;SDS011;43608;49.486;9.640;2023-07-16T02:35:22;2.75;;;1.70;;
57778;SDS011;43608;49.486;9.640;2023-07-16T02:35:53;1.80;;;1.65;;
57778;SDS011;43608;49.486;9.640;2023-07-16T02:36:23;2.20;;;1.70;;
57778;SDS011;43608;49.486;9.640;2023-07-16T02:36:53;1.95;;;1.50;;
57778;SDS011;43608;49.486;9.640;2023-07-16T02:37:24;2.00;;;1.80;;
57778;SDS011;43608;49.486;9.640;2023-07-16T02:37:54;2.83;;;1.75;;
57778;SDS011;43608;49.486;9.640;2023-07-16T02:38:24;2.83;;;1.63;;
57778;SDS011;43608;49.486;9.640;2023-07-16T02:38:55;3.25;;;1.67;;
57778;SDS011;43608;49.486;9.640;2023-07-16T02:39:25;1.90;;;1.70;;
57778;SDS011;43608;49.486;9.640;2023-07-16T02:39:55;2.30;;;1.75;;
57778;SDS011;43608;49.486;9.640;2023-07-16T02:40:26;2.13;;;1.77;;
57778;SDS011;43608;49.486;9.640;2023-07-16T02:40:56;2.20;;;1.63;;
57778;SDS011;43608;49.486;9.640;2023-07-16T02:41:26;2.35;;;1.70;;
57778;SDS011;43608;49.486;9.640;2023-07-16T02:41:57;2.08;;;1.80;;
57778;SDS011;43608;49.486;9.640;2023-07-16T02:42:27;2.33;;;1.77;;
57778;SDS011;43608;49.486;9.640;2023-07-16T02:42:57;2.78;;;1.70;;
57778;SDS011;43608;49.486;9.640;2023-07-16T02:43:28;1.70;;;1.60;;
57778;SDS011;43608;49.486;9.640;2023-07-16T02:44:03;1.60;;;1.50;;
57778;SDS011;43608;49.486;9.640;2023-07-16T02:44:35;2.72;;;1.92;;
57778;SDS011;43608;49.486;9.640;2023-07-16T02:45:11;1.98;;;1.77;;
57778;SDS011;43608;49.486;9.640;2023-07-16T02:45:42;1.63;;;1.52;;
57778;SDS011;43608;49.486;9.640;2023-07-16T02:46:12;2.83;;;1.95;;
57778;SDS011;43608;49.486;9.640;2023-07-16T02:46:42;1.80;;;1.65;;
57778;SDS011;43608;49.486;9.640;2023-07-16T02:47:14;2.10;;;1.70;;
57778;SDS011;43608;49.486;9.640;2023-07-16T02:47:44;3.22;;;1.80;;
57778;SDS011;43608;49.486;9.640;2023-07-16T02:48:14;1.73;;;1.60;;
57778;SDS011;43608;49.486;9.640;2023-07-16T02:48:45;1.73;;;1.60;;
57778;SDS011;43608;49.486;9.640;2023-07-16T02:49:15;2.03;;;1.80;;
57778;SDS011;43608;49.486;9.640;2023-07-16T02:49:45;1.95;;;1.70;;
57778;SDS011;43608;49.486;9.640;2023-07-16T02:50:16;1.67;;;1.58;;
57778;SDS011;43608;49.486;9.640;2023-07-16T02:50:46;1.70;;;1.60;;
57778;SDS011;43608;49.486;9.640;2023-07-16T02:51:16;2.40;;;1.83;;
57778;SDS011;43608;49.486;9.640;2023-07-16T02:51:47;1.83;;;1.70;;
57778;SDS011;43608;49.486;9.640;2023-07-16T02:52:17;2.05;;;1.70;;
57778;SDS011;43608;49.486;9.640;2023-07-16T02:52:47;2.00;;;1.60;;
57778;SDS011;43608;49.486;9.640;2023-07-16T02:53:18;1.75;;;1.50;;
57778;SDS011;43608;49.486;9.640;2023-07-16T02:53:48;2.72;;;1.80;;
57778;SDS011;43608;49.486;9.640;2023-07-16T02:54:18;3.40;;;1.70;;
57778;SDS011;43608;49.486;9.640;2023-07-16T02:54:49;2.42;;;1.70;;
57778;SDS011;43608;49.486;9.640;2023-07-16T02:55:19;1.85;;;1.65;;
57778;SDS011;43608;49.486;9.640;2023-07-16T02:55:49;1.95;;;1.70;;
57778;SDS011;43608;49.486;9.640;2023-07-16T02:56:20;2.50;;;1.70;;
57778;SDS011;43608;49.486;9.640;2023-07-16T02:56:50;1.88;;;1.67;;
57778;SDS011;43608;49.486;9.640;2023-07-16T02:57:21;2.15;;;1.85;;
57778;SDS011;43608;49.486;9.640;2023-07-16T02:57:52;2.42;;;1.70;;
57778;SDS011;43608;49.486;9.640;2023-07-16T02:58:22;2.40;;;1.80;;
57778;SDS011;43608;49.486;9.640;2023-07-16T02:58:53;2.40;;;1.83;;
57778;SDS011;43608;49.486;9.640;2023-07-16T02:59:23;2.40;;;1.80;;
57778;SDS011;43608;49.486;9.640;2023-07-16T02:59:53;2.28;;;1.50;;
57778;SDS011;43608;49.486;9.640;2023-07-16T03:00:24;2.83;;;1.70;;
57778;SDS011;43608;49.486;9.640;2023-07-16T03:00:54;3.13;;;1.85;;
57778;SDS011;43608;49.486;9.640;2023-07-16T03:01:25;1.90;;;1.70;;
57778;SDS011;43608;49.486;9.640;2023-07-16T03:01:55;2.58;;;1.70;;
57778;SDS011;43608;49.486;9.640;2023-07-16T03:02:26;2.03;;;1.42;;
57778;SDS011;43608;49.486;9.640;2023-07-16T03:02:56;2.45;;;1.85;;
57778;SDS011;43608;49.486;9.640;2023-07-16T03:03:28;2.33;;;1.60;;
57778;SDS011;43608;49.486;9.640;2023-07-16T03:03:59;2.75;;;1.70;;
57778;SDS011;43608;49.486;9.640;2023-07-16T03:04:29;2.15;;;1.75;;
57778;SDS011;43608;49.486;9.640;2023-07-16T03:04:59;2.15;;;1.65;;
57778;SDS011;43608;49.486;9.640;2023-07-16T03:05:30;2.08;;;1.83;;
57778;SDS011;43608;49.486;9.640;2023-07-16T03:06:00;1.75;;;1.60;;
57778;SDS011;43608;49.486;9.640;2023-07-16T03:06:31;2.05;;;1.85;;
57778;SDS011;43608;49.486;9.640;2023-07-16T03:07:01;1.80;;;1.70;;
57778;SDS011;43608;49.486;9.640;2023-07-16T03:07:32;2.78;;;1.70;;
57778;SDS011;43608;49.486;9.640;2023-07-16T03:08:02;2.33;;;1.80;;
57778;SDS011;43608;49.486;9.640;2023-07-16T03:08:33;2.85;;;1.75;;
57778;SDS011;43608;49.486;9.640;2023-07-16T03:09:04;2.30;;;1.70;;
57778;SDS011;43608;49.486;9.640;2023-07-16T03:09:35;2.30;;;1.75;;
57778;SDS011;43608;49.486;9.640;2023-07-16T03:10:05;2.33;;;1.80;;
57778;SDS011;43608;49.486;9.640;2023-07-16T03:10:36;2.58;;;1.80;;
57778;SDS011;43608;49.486;9.640;2023-07-16T03:11:06;2.88;;;1.70;;
57778;SDS011;43608;49.486;9.640;2023-07-16T03:11:36;1.95;;;1.65;;
57778;SDS011;43608;49.486;9.640;2023-07-16T03:12:07;2.30;;;1.73;;
57778;SDS011;43608;49.486;9.640;2023-07-16T03:12:38;2.15;;;1.70;;